Time;durP1;ratioP1;P1;durP2;ratioP2;P2;SDS_P1;SDS_P2;PMS_P1;PMS_P2;Temp;Humidity;BMP_temperature;BMP_pressure;BME280_temperature;BME280_humidity;BME280_pressure;Samples;Min_cycle;Max_cycle;Signal;HPM_P1;HPM_P2
2023/05/22 00:02:08;;;;;;;22.80;17.05;;;18.40;99.90;;;;;;5093831;28;20363;-59
2023/05/22 00:04:34;;;;;;;18.73;16.75;;;18.40;99.90;;;;;;5093887;28;20043;-58
2023/05/22 00:07:00;;;;;;;21.10;17.63;;;18.30;99.90;;;;;;5092903;28;20044;-58
2023/05/22 00:09:25;;;;;;;20.27;17.27;;;18.30;99.90;;;;;;5093902;28;20115;-57
2023/05/22 00:11:51;;;;;;;23.80;17.50;;;18.30;99.90;;;;;;5093870;28;20078;-58
2023/05/22 00:14:17;;;;;;;19.33;16.88;;;18.30;99.90;;;;;;5093529;28;20401;-58
2023/05/22 00:16:43;;;;;;;21.27;18.05;;;18.30;99.90;;;;;;5093873;28;20035;-57
2023/05/22 00:19:12;;;;;;;22.42;17.77;;;18.30;99.90;;;;;;5093801;28;20093;-57
2023/05/22 00:21:41;;;;;;;20.73;17.75;;;18.30;99.90;;;;;;5092148;28;20547;-57
2023/05/22 00:24:07;;;;;;;21.65;19.35;;;18.40;99.90;;;;;;5093711;28;20039;-57
2023/05/22 00:26:33;;;;;;;26.75;19.73;;;18.20;99.90;;;;;;5093516;28;20405;-58
2023/05/22 00:28:58;;;;;;;21.80;18.75;;;18.30;99.90;;;;;;5093289;28;20043;-59
2023/05/22 00:31:24;;;;;;;23.10;19.00;;;18.20;99.90;;;;;;5093408;28;20068;-58
2023/05/22 00:33:50;;;;;;;22.70;18.92;;;18.20;99.90;;;;;;5093367;28;20115;-58
2023/05/22 00:36:17;;;;;;;25.00;19.80;;;18.30;99.90;;;;;;5125888;27;20163;-58
2023/05/22 00:38:43;;;;;;;24.10;19.88;;;18.20;99.90;;;;;;5093401;28;20042;-58
2023/05/22 00:41:08;;;;;;;26.58;18.55;;;18.20;99.90;;;;;;5093653;28;20040;-59
2023/05/22 00:43:37;;;;;;;22.33;18.63;;;18.20;99.90;;;;;;5072690;28;20036;-57
2023/05/22 00:46:03;;;;;;;23.23;18.63;;;18.20;99.90;;;;;;5072965;28;20490;-58
2023/05/22 00:48:29;;;;;;;21.90;19.45;;;18.30;99.90;;;;;;5072889;28;20035;-59
2023/05/22 00:50:56;;;;;;;22.75;19.50;;;18.20;99.90;;;;;;5073100;28;20535;-57
2023/05/22 00:53:24;;;;;;;24.98;18.92;;;18.20;99.90;;;;;;5073165;28;20390;-57
2023/05/22 00:55:52;;;;;;;19.98;17.73;;;18.20;99.90;;;;;;5073135;28;20032;-57
2023/05/22 00:58:18;;;;;;;21.40;17.90;;;18.20;99.90;;;;;;5073046;28;20036;-58
2023/05/22 01:00:45;;;;;;;23.70;17.63;;;18.10;99.90;;;;;;5072999;28;20036;-57
2023/05/22 01:03:11;;;;;;;23.25;18.90;;;18.20;99.90;;;;;;5073067;28;20045;-57
2023/05/22 01:05:38;;;;;;;20.90;17.33;;;18.20;99.90;;;;;;5072816;28;20033;-58
2023/05/22 01:08:05;;;;;;;21.90;19.50;;;18.10;99.90;;;;;;5072974;28;20167;-58
2023/05/22 01:10:32;;;;;;;22.92;18.77;;;18.00;99.90;;;;;;5105332;28;20049;-58
2023/05/22 01:13:35;;;;;;;24.65;20.30;;;18.10;99.90;;;;;;5072446;28;20107;-58
2023/05/22 01:16:10;;;;;;;22.35;18.83;;;18.20;99.90;;;;;;5105224;28;20055;-57
2023/05/22 01:18:53;;;;;;;24.02;19.98;;;18.20;99.90;;;;;;5060164;28;20390;-58
2023/05/22 01:21:28;;;;;;;20.65;18.40;;;18.10;99.90;;;;;;5072972;28;20417;-58
2023/05/22 01:24:16;;;;;;;19.67;17.67;;;18.10;99.90;;;;;;5105013;28;20094;-57
2023/05/22 01:27:09;;;;;;;25.35;18.95;;;18.20;99.90;;;;;;5072785;28;20032;-57
2023/05/22 01:30:17;;;;;;;23.25;19.88;;;18.10;99.90;;;;;;5071666;28;20028;-57
2023/05/22 01:32:44;;;;;;;27.05;20.67;;;18.10;99.90;;;;;;5064306;28;20387;-58
2023/05/22 01:35:11;;;;;;;25.00;20.73;;;18.10;99.90;;;;;;5072542;28;20052;-58
2023/05/22 01:37:38;;;;;;;21.92;18.80;;;18.10;99.90;;;;;;5072659;28;20382;-58
2023/05/22 01:40:06;;;;;;;22.40;19.48;;;18.20;99.90;;;;;;5071127;28;20406;-58
2023/05/22 01:42:33;;;;;;;23.30;20.17;;;18.20;99.90;;;;;;5071427;28;20531;-58
2023/05/22 01:44:59;;;;;;;23.95;18.70;;;18.20;99.90;;;;;;5088908;28;20035;-58
2023/05/22 01:47:24;;;;;;;23.23;19.63;;;18.20;99.90;;;;;;5092859;28;20354;-59
2023/05/22 01:49:50;;;;;;;31.65;20.15;;;18.10;99.90;;;;;;5125199;28;20451;-58
2023/05/22 01:52:51;;;;;;;26.38;20.83;;;18.00;99.90;;;;;;5074893;28;20086;-58
2023/05/22 01:55:26;;;;;;;23.35;18.58;;;18.00;99.90;;;;;;5072038;28;20486;-59
2023/05/22 01:58:07;;;;;;;24.88;20.88;;;17.90;99.90;;;;;;5072409;28;20138;-57
2023/05/22 02:00:36;;;;;;;24.45;21.67;;;18.00;99.90;;;;;;5072436;28;20047;-59
2023/05/22 02:03:07;;;;;;;22.88;20.52;;;17.80;99.90;;;;;;5072221;28;20123;-58
2023/05/22 02:05:35;;;;;;;23.20;19.42;;;18.00;99.90;;;;;;5072079;28;20039;-57
2023/05/22 02:08:02;;;;;;;23.70;21.10;;;17.90;99.90;;;;;;5071970;28;20040;-57
2023/05/22 02:10:29;;;;;;;21.02;17.92;;;17.80;99.90;;;;;;5071252;28;20032;-58
2023/05/22 02:12:55;;;;;;;25.42;20.88;;;17.90;99.90;;;;;;5071832;28;20040;-58
2023/05/22 02:15:20;;;;;;;23.33;20.75;;;17.90;99.90;;;;;;5104604;28;20055;-58
2023/05/22 02:17:48;;;;;;;25.40;21.77;;;17.80;99.90;;;;;;5072151;28;20371;-58
2023/05/22 02:20:14;;;;;;;26.00;21.92;;;17.80;99.90;;;;;;5071031;28;20048;-58
2023/05/22 02:22:45;;;;;;;25.55;21.30;;;17.80;99.90;;;;;;5071664;28;20344;-57
2023/05/22 02:25:13;;;;;;;22.70;19.70;;;17.70;99.90;;;;;;5072128;28;20048;-58
2023/05/22 02:27:50;;;;;;;24.33;21.08;;;17.80;99.90;;;;;;5070148;28;20420;-57
2023/05/22 02:30:16;;;;;;;23.00;20.33;;;17.80;99.90;;;;;;5074956;28;20040;-59
2023/05/22 02:32:42;;;;;;;22.48;19.65;;;17.80;99.90;;;;;;5074924;28;20044;-59
2023/05/22 02:35:08;;;;;;;23.33;20.75;;;17.70;99.90;;;;;;5075072;28;20068;-59
2023/05/22 02:37:35;;;;;;;22.35;19.95;;;17.70;99.90;;;;;;5075459;28;20051;-58
2023/05/22 02:40:00;;;;;;;23.15;20.65;;;17.60;99.90;;;;;;5075413;28;20067;-59
2023/05/22 02:42:26;;;;;;;25.45;22.85;;;17.70;99.90;;;;;;5075180;28;20072;-58
2023/05/22 02:44:52;;;;;;;24.10;21.05;;;17.70;99.90;;;;;;5075105;28;20059;-58
2023/05/22 02:47:17;;;;;;;27.63;23.33;;;17.70;99.90;;;;;;5075354;28;20048;-59
2023/05/22 02:49:43;;;;;;;20.85;18.77;;;17.70;99.90;;;;;;5074940;28;20037;-58
2023/05/22 02:52:09;;;;;;;24.45;21.85;;;17.70;99.90;;;;;;5075933;28;20056;-57
2023/05/22 02:54:35;;;;;;;26.92;23.10;;;17.80;99.90;;;;;;5094235;28;20052;-58
2023/05/22 02:57:01;;;;;;;26.10;22.80;;;17.70;99.90;;;;;;5095405;28;20044;-58
2023/05/22 02:59:27;;;;;;;24.08;21.58;;;17.70;99.90;;;;;;5095188;28;20040;-58
2023/05/22 03:01:53;;;;;;;27.75;22.80;;;17.80;99.90;;;;;;5095316;28;20043;-59
2023/05/22 03:04:18;;;;;;;25.08;21.65;;;17.70;99.90;;;;;;5095390;28;20348;-58
2023/05/22 03:06:45;;;;;;;24.75;22.15;;;17.70;99.90;;;;;;5094844;28;20085;-58
2023/05/22 03:09:10;;;;;;;26.33;20.80;;;17.60;99.90;;;;;;5095155;28;20569;-58
2023/05/22 03:11:36;;;;;;;25.58;21.05;;;17.70;99.90;;;;;;5095237;28;20119;-58
2023/05/22 03:14:02;;;;;;;26.08;23.38;;;17.70;99.90;;;;;;5094920;28;20039;-58
2023/05/22 03:16:28;;;;;;;25.48;22.77;;;17.70;99.90;;;;;;5095008;28;20085;-58
2023/05/22 03:19:08;;;;;;;25.20;22.55;;;17.70;99.90;;;;;;5095016;28;20028;-58
2023/05/22 03:21:33;;;;;;;27.13;22.33;;;17.60;99.90;;;;;;5095241;28;20082;-58
2023/05/22 03:23:59;;;;;;;29.05;22.33;;;17.70;99.90;;;;;;5094853;28;20417;-58
2023/05/22 03:26:27;;;;;;;25.77;23.15;;;17.60;99.90;;;;;;5095181;28;20043;-59
2023/05/22 03:28:53;;;;;;;29.75;23.48;;;17.60;99.90;;;;;;5094729;28;20040;-59
2023/05/22 03:31:18;;;;;;;25.65;22.75;;;17.40;99.90;;;;;;5094725;28;20069;-58
2023/05/22 03:33:44;;;;;;;25.92;23.30;;;17.50;99.90;;;;;;5094877;28;20047;-58
2023/05/22 03:36:10;;;;;;;24.55;21.95;;;17.50;99.90;;;;;;5094350;28;20048;-58
2023/05/22 03:38:36;;;;;;;22.23;19.50;;;17.40;99.90;;;;;;5094885;28;20044;-59
2023/05/22 03:41:01;;;;;;;24.40;21.75;;;17.40;99.90;;;;;;5094255;28;20032;-58
2023/05/22 03:43:27;;;;;;;23.67;19.05;;;17.40;99.90;;;;;;5093264;28;20036;-58
2023/05/22 03:45:52;;;;;;;26.00;23.38;;;17.40;99.90;;;;;;5094455;28;20071;-59
2023/05/22 03:48:19;;;;;;;27.60;24.63;;;17.50;99.90;;;;;;5094544;28;20118;-58
2023/05/22 03:50:45;;;;;;;27.73;24.27;;;17.60;99.90;;;;;;5089458;28;20037;-58
2023/05/22 03:53:11;;;;;;;29.55;23.75;;;17.40;99.90;;;;;;5074086;28;20464;-58
2023/05/22 03:55:36;;;;;;;24.75;22.17;;;17.50;99.90;;;;;;5072634;28;20075;-58
2023/05/22 03:58:02;;;;;;;28.88;24.23;;;17.40;99.90;;;;;;5073805;28;20037;-57
2023/05/22 04:00:28;;;;;;;26.95;23.58;;;17.40;99.90;;;;;;5073433;28;20036;-58
2023/05/22 04:02:57;;;;;;;28.70;24.90;;;17.30;99.90;;;;;;5074030;28;20048;-58
2023/05/22 04:05:23;;;;;;;23.90;21.27;;;17.40;99.90;;;;;;5073657;28;20033;-58
2023/05/22 04:07:49;;;;;;;27.85;23.13;;;17.40;99.90;;;;;;5073574;28;20036;-58
2023/05/22 04:10:15;;;;;;;29.77;24.50;;;17.40;99.90;;;;;;5106337;28;20454;-57
2023/05/22 04:12:40;;;;;;;27.42;24.38;;;17.40;99.90;;;;;;5073544;28;20075;-58
2023/05/22 04:15:07;;;;;;;31.15;26.20;;;17.30;99.90;;;;;;5073809;28;20075;-57
2023/05/22 04:17:39;;;;;;;30.48;25.52;;;17.40;99.90;;;;;;5073914;28;20110;-58
2023/05/22 04:20:05;;;;;;;31.08;23.55;;;17.30;99.90;;;;;;5073704;28;20123;-58
2023/05/22 04:22:32;;;;;;;29.45;25.52;;;17.40;99.90;;;;;;5105882;28;20044;-58
2023/05/22 04:24:57;;;;;;;29.95;26.10;;;17.40;99.90;;;;;;5073540;28;20493;-58
2023/05/22 04:27:23;;;;;;;33.30;26.08;;;17.30;99.90;;;;;;5073399;28;20162;-58
2023/05/22 04:29:49;;;;;;;31.17;25.02;;;17.40;99.90;;;;;;5073413;28;20583;-58
2023/05/22 04:32:20;;;;;;;26.40;22.48;;;17.30;99.90;;;;;;5073690;28;20066;-58
2023/05/22 04:34:48;;;;;;;32.10;22.67;;;17.30;99.90;;;;;;5071853;28;20192;-58
2023/05/22 04:37:14;;;;;;;26.73;23.85;;;17.30;99.90;;;;;;5073107;28;20135;-58
2023/05/22 04:39:40;;;;;;;28.73;22.63;;;17.20;99.90;;;;;;5072977;28;20514;-58
2023/05/22 04:42:06;;;;;;;28.98;22.48;;;17.30;99.90;;;;;;5072684;28;20049;-58
2023/05/22 04:44:33;;;;;;;24.77;21.98;;;17.30;99.90;;;;;;5073042;28;20116;-58
2023/05/22 04:47:02;;;;;;;26.35;22.23;;;17.30;99.90;;;;;;5073097;28;20095;-59
2023/05/22 04:49:28;;;;;;;25.15;20.42;;;17.30;99.90;;;;;;5073282;28;20037;-58
2023/05/22 04:51:56;;;;;;;31.13;21.38;;;17.20;99.90;;;;;;5072273;28;20040;-58
2023/05/22 04:54:23;;;;;;;32.10;22.15;;;17.30;99.90;;;;;;5072995;28;20094;-58
2023/05/22 04:56:50;;;;;;;26.20;21.45;;;17.20;99.90;;;;;;5073164;28;20120;-59
2023/05/22 04:59:16;;;;;;;26.23;20.15;;;17.30;99.90;;;;;;5072911;28;20036;-59
2023/05/22 05:01:46;;;;;;;24.05;20.80;;;17.30;99.90;;;;;;5072840;28;20497;-58
2023/05/22 05:04:12;;;;;;;23.95;20.92;;;17.40;99.90;;;;;;5072763;28;20032;-58
2023/05/22 05:06:37;;;;;;;22.33;19.95;;;17.40;99.90;;;;;;5072538;28;20035;-59
2023/05/22 05:09:03;;;;;;;22.50;19.98;;;17.40;99.90;;;;;;5072514;28;20075;-58
2023/05/22 05:11:29;;;;;;;23.10;20.27;;;17.40;99.90;;;;;;5073113;28;20139;-58
2023/05/22 05:13:55;;;;;;;23.90;20.20;;;17.50;99.90;;;;;;5072789;28;20119;-58
2023/05/22 05:16:23;;;;;;;24.30;19.65;;;17.50;99.90;;;;;;5072298;28;20032;-58
2023/05/22 05:18:50;;;;;;;24.05;19.52;;;17.40;99.90;;;;;;5085909;28;20040;-58
2023/05/22 05:21:16;;;;;;;21.23;17.90;;;17.30;99.90;;;;;;5092585;28;20730;-58
2023/05/22 05:23:42;;;;;;;30.77;18.52;;;17.40;99.90;;;;;;5093001;28;20070;-59
2023/05/22 05:26:08;;;;;;;32.83;17.48;;;17.40;99.90;;;;;;5092120;28;20036;-59
2023/05/22 05:28:34;;;;;;;22.83;18.35;;;17.40;99.90;;;;;;5125548;28;20042;-59
2023/05/22 05:31:00;;;;;;;21.27;16.58;;;17.40;99.90;;;;;;5092830;28;20036;-59
2023/05/22 05:33:26;;;;;;;20.30;17.02;;;17.30;99.90;;;;;;5092590;28;20388;-59
2023/05/22 05:35:52;;;;;;;17.95;14.55;;;17.40;99.90;;;;;;5092377;28;20056;-58
2023/05/22 05:38:18;;;;;;;21.85;16.92;;;17.40;99.90;;;;;;5092783;28;20105;-58
2023/05/22 05:40:44;;;;;;;18.48;16.40;;;17.30;99.90;;;;;;5091133;28;20043;-58
2023/05/22 05:43:10;;;;;;;24.50;17.45;;;17.40;99.90;;;;;;5091128;28;20393;-57
2023/05/22 05:45:36;;;;;;;19.25;16.20;;;17.40;99.90;;;;;;5092533;28;20093;-58
2023/05/22 05:48:01;;;;;;;24.92;17.13;;;17.50;99.90;;;;;;5092646;28;20044;-58
2023/05/22 05:50:27;;;;;;;21.42;16.08;;;17.40;99.90;;;;;;5089748;28;20043;-58
2023/05/22 05:52:52;;;;;;;14.23;11.48;;;17.40;99.90;;;;;;5072643;28;20041;-57
2023/05/22 05:55:18;;;;;;;20.85;15.55;;;17.40;99.90;;;;;;5077520;28;20040;-59
2023/05/22 05:57:44;;;;;;;21.52;17.20;;;17.40;99.90;;;;;;5072119;28;20040;-59
2023/05/22 06:00:10;;;;;;;16.88;13.85;;;17.40;99.90;;;;;;5072103;28;20040;-59
2023/05/22 06:02:36;;;;;;;17.20;13.68;;;17.50;99.90;;;;;;5071937;28;20045;-59
2023/05/22 06:05:04;;;;;;;24.60;16.25;;;17.60;99.90;;;;;;5074703;28;20799;-58
2023/05/22 06:07:30;;;;;;;22.33;16.20;;;17.60;99.90;;;;;;5108434;28;20048;-59
2023/05/22 06:09:57;;;;;;;22.58;16.45;;;17.60;99.90;;;;;;5075781;28;20063;-59
2023/05/22 06:12:23;;;;;;;23.05;16.40;;;17.50;99.90;;;;;;5074405;28;20767;-59
2023/05/22 06:14:49;;;;;;;16.55;14.27;;;17.70;99.90;;;;;;5075845;28;20036;-59
2023/05/22 06:17:15;;;;;;;27.17;15.07;;;17.60;99.90;;;;;;5107583;28;20044;-60
2023/05/22 06:19:41;;;;;;;21.10;13.38;;;17.60;99.90;;;;;;5075522;28;20041;-58
2023/05/22 06:22:06;;;;;;;21.23;16.48;;;17.60;99.90;;;;;;5073634;28;20115;-58
2023/05/22 06:24:32;;;;;;;21.55;15.85;;;17.70;99.90;;;;;;5075279;28;20033;-59
2023/05/22 06:26:58;;;;;;;22.05;14.55;;;17.50;99.90;;;;;;5075580;28;20482;-58
2023/05/22 06:29:24;;;;;;;25.02;14.07;;;17.60;99.90;;;;;;5084841;28;20036;-58
2023/05/22 06:31:50;;;;;;;28.00;15.52;;;17.40;99.90;;;;;;5095708;28;20381;-58
2023/05/22 06:34:15;;;;;;;19.02;13.25;;;17.50;99.90;;;;;;5095130;28;20393;-58
2023/05/22 06:36:41;;;;;;;27.40;13.30;;;17.50;99.90;;;;;;5095310;28;20048;-59
2023/05/22 06:39:07;;;;;;;17.88;11.20;;;17.40;99.90;;;;;;5095444;28;20485;-58
2023/05/22 06:41:34;;;;;;;23.65;12.65;;;17.50;99.90;;;;;;5094985;28;20048;-59
2023/05/22 06:44:01;;;;;;;17.30;11.80;;;17.40;99.90;;;;;;5095393;28;20036;-58
2023/05/22 06:46:27;;;;;;;20.75;11.38;;;17.30;99.90;;;;;;5095213;28;20043;-59
2023/05/22 06:48:53;;;;;;;15.18;9.70;;;17.40;99.90;;;;;;5095376;28;20036;-59
2023/05/22 06:51:19;;;;;;;15.60;9.63;;;17.40;99.90;;;;;;5085272;28;20052;-58
2023/05/22 06:53:45;;;;;;;18.90;12.05;;;17.40;99.90;;;;;;5075028;28;20040;-58
2023/05/22 06:56:11;;;;;;;17.08;9.48;;;17.30;99.90;;;;;;5073344;28;20048;-59
2023/05/22 06:58:38;;;;;;;13.88;9.02;;;17.30;99.90;;;;;;5074822;28;20505;-58
2023/05/22 07:01:03;;;;;;;20.58;9.43;;;17.30;99.90;;;;;;5074956;28;20082;-58
2023/05/22 07:03:29;;;;;;;14.18;7.85;;;17.30;99.90;;;;;;5074695;28;20036;-58
2023/05/22 07:05:56;;;;;;;12.15;7.57;;;17.30;99.90;;;;;;5074383;28;20033;-59
2023/05/22 07:08:22;;;;;;;13.25;7.72;;;17.20;99.90;;;;;;5074899;28;20428;-58
2023/05/22 07:10:48;;;;;;;14.75;8.52;;;17.10;99.90;;;;;;5074552;28;20068;-58
2023/05/22 07:13:13;;;;;;;20.80;9.68;;;17.10;99.90;;;;;;5074819;28;20063;-58
2023/05/22 07:15:39;;;;;;;14.82;7.30;;;17.20;99.90;;;;;;5074049;28;20045;-58
2023/05/22 07:18:05;;;;;;;13.30;7.00;;;17.10;99.90;;;;;;5074014;28;20036;-58
2023/05/22 07:20:30;;;;;;;14.40;7.53;;;17.10;99.90;;;;;;5074221;28;20445;-57
2023/05/22 07:22:57;;;;;;;14.30;7.00;;;17.20;99.90;;;;;;5074232;28;20028;-58
2023/05/22 07:25:23;;;;;;;17.02;7.95;;;17.10;99.90;;;;;;5074331;28;20536;-58
2023/05/22 07:27:48;;;;;;;12.52;7.53;;;17.00;99.90;;;;;;5074268;28;20120;-57
2023/05/22 07:30:14;;;;;;;15.40;6.55;;;17.10;99.90;;;;;;5074215;28;20479;-57
2023/05/22 07:32:40;;;;;;;13.63;6.70;;;17.10;99.90;;;;;;5074151;28;20090;-59
2023/05/22 07:35:06;;;;;;;20.20;6.80;;;17.10;99.90;;;;;;5074116;28;20131;-58
2023/05/22 07:37:32;;;;;;;16.95;7.47;;;16.90;99.90;;;;;;5074147;28;20044;-58
2023/05/22 07:39:58;;;;;;;11.60;6.28;;;16.90;99.90;;;;;;5073819;28;20503;-58
2023/05/22 07:42:24;;;;;;;10.13;6.28;;;17.00;99.90;;;;;;5073690;28;20036;-57
2023/05/22 07:44:50;;;;;;;15.85;6.97;;;17.00;99.90;;;;;;5073850;28;20067;-58
2023/05/22 07:47:16;;;;;;;11.68;6.70;;;17.00;99.90;;;;;;5073871;28;20036;-58
2023/05/22 07:49:42;;;;;;;11.82;6.65;;;17.00;99.90;;;;;;5073831;28;20040;-58
2023/05/22 07:52:08;;;;;;;11.35;7.35;;;17.00;99.90;;;;;;5073689;28;20092;-59
2023/05/22 07:54:33;;;;;;;10.20;6.18;;;17.10;99.90;;;;;;5073711;28;20040;-57
2023/05/22 07:57:02;;;;;;;14.25;7.05;;;17.20;99.90;;;;;;5061246;28;20086;-58
2023/05/22 07:59:27;;;;;;;16.48;7.05;;;17.30;99.90;;;;;;5073372;28;20054;-59
2023/05/22 08:01:53;;;;;;;12.52;6.55;;;17.30;99.90;;;;;;5073480;28;20041;-58
2023/05/22 08:04:18;;;;;;;16.67;6.25;;;17.30;99.90;;;;;;5073232;28;20090;-58
2023/05/22 08:06:44;;;;;;;12.27;6.68;;;17.20;99.90;;;;;;5073380;28;20033;-58
2023/05/22 08:09:10;;;;;;;14.90;6.90;;;17.20;99.90;;;;;;5073096;28;20036;-58
2023/05/22 08:11:38;;;;;;;12.05;6.43;;;17.20;99.90;;;;;;5073212;28;20039;-58
2023/05/22 08:14:04;;;;;;;14.18;7.72;;;17.30;99.90;;;;;;5073097;28;20116;-58
2023/05/22 08:16:31;;;;;;;11.63;6.57;;;17.20;99.90;;;;;;5073158;28;20043;-58
2023/05/22 08:18:57;;;;;;;13.43;6.63;;;17.20;99.90;;;;;;5073274;28;20386;-58
2023/05/22 08:21:22;;;;;;;16.05;7.15;;;17.30;99.90;;;;;;5071474;28;20044;-58
2023/05/22 08:23:48;;;;;;;17.52;8.25;;;17.20;99.90;;;;;;5073491;28;20033;-59
2023/05/22 08:26:14;;;;;;;16.83;6.95;;;17.20;99.90;;;;;;5072495;28;20047;-59
2023/05/22 08:28:43;;;;;;;18.65;7.85;;;17.20;99.90;;;;;;5073196;28;20036;-58
2023/05/22 08:31:13;;;;;;;18.08;7.85;;;17.20;99.90;;;;;;5105503;28;20044;-58
2023/05/22 08:33:39;;;;;;;14.27;6.78;;;17.20;99.90;;;;;;5060944;28;20036;-58
2023/05/22 08:36:05;;;;;;;19.27;7.97;;;17.30;99.90;;;;;;5066714;28;20049;-58
2023/05/22 08:38:31;;;;;;;18.23;8.25;;;17.30;99.90;;;;;;5070694;28;20048;-58
2023/05/22 08:40:57;;;;;;;14.35;7.57;;;17.30;99.90;;;;;;5066542;28;20059;-58
2023/05/22 08:43:23;;;;;;;11.85;7.97;;;17.20;99.90;;;;;;5064891;28;20043;-58
2023/05/22 08:45:58;;;;;;;17.85;8.27;;;17.10;99.90;;;;;;5062186;28;20049;-58
2023/05/22 08:48:28;;;;;;;17.00;7.97;;;17.20;99.90;;;;;;5067454;28;20032;-59
2023/05/22 08:50:57;;;;;;;11.98;6.50;;;17.30;99.90;;;;;;5066598;28;20047;-59
2023/05/22 08:53:25;;;;;;;14.88;8.07;;;17.30;99.90;;;;;;5067781;28;20369;-58
2023/05/22 08:55:52;;;;;;;12.18;7.35;;;17.40;99.90;;;;;;5079571;28;20048;-58
2023/05/22 08:58:20;;;;;;;13.32;8.07;;;17.40;99.90;;;;;;5092326;28;20040;-58
2023/05/22 09:00:45;;;;;;;14.52;7.05;;;17.40;99.90;;;;;;5074571;28;20533;-58
2023/05/22 09:03:14;;;;;;;16.30;8.10;;;17.40;99.90;;;;;;5072883;28;20040;-58
2023/05/22 09:05:40;;;;;;;17.60;8.85;;;17.40;99.90;;;;;;5072305;28;20033;-58
2023/05/22 09:08:09;;;;;;;13.10;8.00;;;17.40;99.90;;;;;;5064367;28;20039;-58
2023/05/22 09:10:35;;;;;;;18.75;9.35;;;17.30;99.90;;;;;;5066480;28;20044;-57
2023/05/22 09:13:08;;;;;;;16.10;9.13;;;17.40;99.90;;;;;;5072047;28;20032;-58
2023/05/22 09:15:35;;;;;;;17.95;10.27;;;17.40;99.90;;;;;;5071202;28;20123;-58
2023/05/22 09:18:05;;;;;;;20.60;10.27;;;17.40;99.90;;;;;;5063120;28;20121;-58
2023/05/22 09:20:37;;;;;;;17.48;9.43;;;17.50;99.90;;;;;;5070479;28;20066;-59
2023/05/22 09:23:16;;;;;;;17.30;8.75;;;17.60;99.90;;;;;;5071792;28;20029;-58
2023/05/22 09:25:42;;;;;;;23.63;12.83;;;17.60;99.90;;;;;;5063177;28;20471;-58
2023/05/22 09:28:10;;;;;;;15.75;8.90;;;17.80;99.90;;;;;;5069560;28;20048;-59
2023/05/22 09:30:36;;;;;;;21.35;10.85;;;17.90;99.90;;;;;;5070927;28;20074;-57
2023/05/22 09:33:03;;;;;;;14.48;9.50;;;18.10;99.90;;;;;;5065740;28;20060;-57
2023/05/22 09:35:32;;;;;;;17.73;9.98;;;18.30;99.90;;;;;;5071004;28;20745;-57
2023/05/22 09:37:57;;;;;;;;;;;18.40;99.90;;;;;;5052192;28;20048;-57
2023/05/22 09:40:25;;;;;;;17.92;9.02;;;18.50;99.90;;;;;;5067991;28;20298;-58
2023/05/22 09:42:51;;;;;;;17.43;9.57;;;18.60;99.90;;;;;;5076026;28;20056;-57
2023/05/22 09:45:21;;;;;;;28.48;10.23;;;18.70;99.90;;;;;;5075627;28;20266;-57
2023/05/22 09:47:50;;;;;;;15.20;9.00;;;18.80;99.90;;;;;;5069092;28;20044;-58
2023/05/22 09:50:16;;;;;;;16.20;9.05;;;18.80;99.90;;;;;;5074864;28;20056;-57
2023/05/22 09:52:43;;;;;;;16.75;9.80;;;18.90;99.90;;;;;;5075648;28;20066;-57
2023/05/22 09:55:12;;;;;;;15.40;9.23;;;19.10;99.90;;;;;;5073037;28;20037;-58
2023/05/22 09:57:43;;;;;;;17.05;9.77;;;19.00;99.90;;;;;;5074651;28;20033;-58
2023/05/22 10:00:12;;;;;;;16.15;9.43;;;19.30;99.90;;;;;;5075164;28;20501;-58
2023/05/22 10:02:43;;;;;;;16.27;10.02;;;19.60;99.90;;;;;;5089638;28;20094;-57
2023/05/22 10:05:10;;;;;;;16.00;8.77;;;19.50;99.90;;;;;;5056881;28;20494;-58
2023/05/22 10:07:42;;;;;;;18.30;8.65;;;19.70;99.90;;;;;;5075148;28;20082;-55
2023/05/22 10:10:11;;;;;;;14.20;9.73;;;19.90;99.90;;;;;;5075216;28;20079;-57
2023/05/22 10:12:59;;;;;;;17.80;10.98;;;20.00;99.90;;;;;;5075313;28;20517;-57
2023/05/22 10:15:26;;;;;;;19.23;10.48;;;19.90;99.90;;;;;;5089903;28;20439;-57
2023/05/22 10:17:52;;;;;;;21.40;11.35;;;19.90;99.90;;;;;;5086089;28;20047;-57
2023/05/22 10:20:19;;;;;;;24.77;11.63;;;19.80;99.90;;;;;;5095637;28;20035;-57
2023/05/22 10:22:47;;;;;;;19.00;11.43;;;19.80;99.90;;;;;;5119620;27;20041;-58
2023/05/22 10:25:13;;;;;;;15.93;10.27;;;19.90;99.90;;;;;;5080169;28;20047;-58
2023/05/22 10:27:40;;;;;;;23.75;11.43;;;19.90;99.90;;;;;;5075104;28;20028;-58
2023/05/22 10:30:33;;;;;;;16.98;10.55;;;20.00;99.90;;;;;;5088086;28;20497;-58
2023/05/22 10:33:05;;;;;;;18.80;10.40;;;20.20;99.90;;;;;;5104936;27;20086;-57
2023/05/22 10:35:43;;;;;;;19.98;10.82;;;20.30;99.90;;;;;;5092782;28;20131;-57
2023/05/22 10:38:23;;;;;;;18.50;10.35;;;20.30;99.90;;;;;;5074955;28;20040;-58
2023/05/22 10:40:50;;;;;;;17.77;11.25;;;20.30;99.90;;;;;;5074536;28;20047;-57
2023/05/22 10:43:16;;;;;;;20.85;13.00;;;20.30;99.90;;;;;;5080466;28;20051;-56
2023/05/22 10:45:45;;;;;;;23.27;11.07;;;20.30;99.90;;;;;;5092618;28;20040;-58
2023/05/22 10:48:11;;;;;;;17.50;11.98;;;20.30;99.90;;;;;;5093009;28;20113;-57
2023/05/22 10:50:38;;;;;;;24.90;12.00;;;20.30;99.90;;;;;;5083537;28;20037;-58
2023/05/22 10:53:21;;;;;;;24.15;12.15;;;20.40;99.90;;;;;;5072951;28;20041;-58
2023/05/22 10:55:48;;;;;;;16.55;11.45;;;20.50;99.90;;;;;;5105001;28;20445;-57
2023/05/22 10:58:16;;;;;;;26.05;12.48;;;20.60;99.90;;;;;;5072563;28;20397;-57
2023/05/22 11:00:41;;;;;;;23.95;11.95;;;20.70;99.90;;;;;;5105020;28;20052;-58
2023/05/22 11:03:08;;;;;;;23.50;12.30;;;21.00;99.90;;;;;;5074266;28;20090;-58
2023/05/22 11:05:35;;;;;;;22.30;11.63;;;21.10;99.90;;;;;;5073918;28;20041;-58
2023/05/22 11:08:31;;;;;;;23.75;11.25;;;21.10;99.90;;;;;;5073983;28;20054;-57
2023/05/22 11:11:00;;;;;;;18.00;11.02;;;21.30;99.90;;;;;;5074408;28;20078;-58
2023/05/22 11:13:26;;;;;;;18.20;10.68;;;21.30;99.90;;;;;;5074563;28;20078;-58
2023/05/22 11:15:55;;;;;;;19.70;12.30;;;21.40;99.90;;;;;;5107170;28;20121;-59
2023/05/22 11:18:20;;;;;;;;;;;21.40;99.90;;;;;;5074702;28;20513;-58
2023/05/22 11:20:46;;;;;;;17.50;11.23;;;21.60;99.90;;;;;;5074767;28;19917;-58
2023/05/22 11:23:12;;;;;;;17.77;12.35;;;22.00;99.90;;;;;;5074634;28;20037;-59
2023/05/22 11:25:39;;;;;;;25.02;12.75;;;22.50;99.90;;;;;;5091766;28;20595;-58
2023/05/22 11:28:06;;;;;;;20.23;12.53;;;22.80;99.90;;;;;;5094809;28;20410;-59
2023/05/22 11:30:33;;;;;;;18.38;11.88;;;23.10;99.90;;;;;;5093863;28;20641;-59
2023/05/22 11:33:00;;;;;;;16.38;11.82;;;23.40;99.90;;;;;;5089125;28;20475;-58
2023/05/22 11:35:26;;;;;;;17.48;12.13;;;23.50;99.90;;;;;;5066672;28;20513;-58
2023/05/22 11:37:53;;;;;;;16.65;11.63;;;23.30;99.90;;;;;;5087299;28;20130;-58
2023/05/22 11:40:21;;;;;;;16.70;11.15;;;23.60;99.90;;;;;;5127131;27;20404;-59
2023/05/22 11:42:47;;;;;;;24.08;12.45;;;23.50;99.90;;;;;;5094189;28;20115;-58
2023/05/22 11:45:13;;;;;;;18.02;12.95;;;23.30;99.90;;;;;;5094338;28;20036;-59
2023/05/22 11:47:40;;;;;;;15.88;11.77;;;23.50;99.90;;;;;;5094518;28;20036;-60
2023/05/22 11:50:10;;;;;;;12.55;10.25;;;23.80;99.90;;;;;;5127106;27;20040;-58
2023/05/22 11:52:37;;;;;;;15.90;10.82;;;24.00;99.90;;;;;;5060344;28;20124;-58
2023/05/22 11:55:04;;;;;;;15.18;10.85;;;24.10;99.90;;;;;;5085982;28;20050;-59
2023/05/22 11:57:30;;;;;;;11.13;8.90;;;24.20;99.90;;;;;;5093802;28;20040;-60
2023/05/22 12:00:00;;;;;;;11.20;9.80;;;24.40;99.90;;;;;;5125358;27;20052;-59
2023/05/22 12:02:26;;;;;;;10.45;9.35;;;24.50;99.90;;;;;;5087702;28;20051;-59
2023/05/22 12:04:56;;;;;;;11.90;9.43;;;24.60;99.90;;;;;;5093844;28;20032;-58
2023/05/22 12:07:22;;;;;;;13.13;8.70;;;24.70;99.90;;;;;;5082917;28;20040;-58
2023/05/22 12:09:48;;;;;;;12.38;9.48;;;25.00;99.90;;;;;;5093348;28;20454;-58
2023/05/22 12:12:17;;;;;;;14.70;9.60;;;25.30;99.90;;;;;;5093392;28;20119;-59
2023/05/22 12:14:46;;;;;;;14.02;9.93;;;25.20;99.90;;;;;;5126675;27;20431;-58
2023/05/22 12:17:12;;;;;;;13.52;10.43;;;25.40;99.90;;;;;;5088482;28;20040;-58
2023/05/22 12:19:41;;;;;;;14.63;10.52;;;25.30;99.90;;;;;;5093544;28;20032;-59
2023/05/22 12:22:08;;;;;;;10.23;9.13;;;25.20;99.90;;;;;;5092907;28;20043;-59
2023/05/22 12:24:47;;;;;;;14.25;10.23;;;25.40;99.90;;;;;;5093136;28;20032;-59
2023/05/22 12:27:13;;;;;;;15.45;10.82;;;25.50;99.90;;;;;;5093321;28;20032;-59
2023/05/22 12:29:40;;;;;;;17.08;11.77;;;25.30;99.90;;;;;;5092870;28;20067;-60
2023/05/22 12:32:08;;;;;;;13.35;11.48;;;24.90;99.90;;;;;;5089137;28;20473;-59
2023/05/22 12:34:40;;;;;;;19.75;13.43;;;24.60;99.90;;;;;;5092703;28;20046;-58